sensor_id;sensor_type;location;lat;lon;timestamp;P1;durP1;ratioP1;P2;durP2;ratioP2
17052;SDS011;8643;48.824;11.422;2022-12-07T00:01:45;10.57;;;6.90;;
17052;SDS011;8643;48.824;11.422;2022-12-07T00:04:16;9.63;;;6.37;;
17052;SDS011;8643;48.824;11.422;2022-12-07T00:06:46;10.10;;;6.40;;
17052;SDS011;8643;48.824;11.422;2022-12-07T00:09:19;10.27;;;6.80;;
17052;SDS011;8643;48.824;11.422;2022-12-07T00:11:48;10.37;;;6.40;;
17052;SDS011;8643;48.824;11.422;2022-12-07T00:14:19;12.03;;;7.40;;
17052;SDS011;8643;48.824;11.422;2022-12-07T00:16:50;15.87;;;7.10;;
17052;SDS011;8643;48.824;11.422;2022-12-07T00:19:19;11.77;;;7.67;;
17052;SDS011;8643;48.824;11.422;2022-12-07T00:21:47;11.33;;;7.50;;
17052;SDS011;8643;48.824;11.422;2022-12-07T00:24:16;11.13;;;7.00;;
17052;SDS011;8643;48.824;11.422;2022-12-07T00:26:44;11.43;;;7.40;;
17052;SDS011;8643;48.824;11.422;2022-12-07T00:29:14;12.37;;;7.97;;
17052;SDS011;8643;48.824;11.422;2022-12-07T00:31:44;12.40;;;7.80;;
17052;SDS011;8643;48.824;11.422;2022-12-07T00:34:16;11.93;;;7.40;;
17052;SDS011;8643;48.824;11.422;2022-12-07T00:36:47;11.43;;;7.30;;
17052;SDS011;8643;48.824;11.422;2022-12-07T00:39:17;10.93;;;6.87;;
17052;SDS011;8643;48.824;11.422;2022-12-07T00:41:45;11.70;;;6.80;;
17052;SDS011;8643;48.824;11.422;2022-12-07T00:44:14;11.70;;;7.23;;
17052;SDS011;8643;48.824;11.422;2022-12-07T00:46:42;11.87;;;7.13;;
17052;SDS011;8643;48.824;11.422;2022-12-07T00:49:11;14.77;;;8.10;;
17052;SDS011;8643;48.824;11.422;2022-12-07T00:51:41;13.53;;;7.90;;
17052;SDS011;8643;48.824;11.422;2022-12-07T00:54:10;13.37;;;8.23;;
17052;SDS011;8643;48.824;11.422;2022-12-07T00:56:39;14.20;;;7.80;;
17052;SDS011;8643;48.824;11.422;2022-12-07T00:59:10;14.10;;;7.93;;
17052;SDS011;8643;48.824;11.422;2022-12-07T01:01:41;15.10;;;8.20;;
17052;SDS011;8643;48.824;11.422;2022-12-07T01:04:10;12.13;;;7.10;;
17052;SDS011;8643;48.824;11.422;2022-12-07T01:06:38;11.50;;;7.40;;
17052;SDS011;8643;48.824;11.422;2022-12-07T01:09:08;12.33;;;7.63;;
17052;SDS011;8643;48.824;11.422;2022-12-07T01:11:36;13.00;;;8.00;;
17052;SDS011;8643;48.824;11.422;2022-12-07T01:14:05;10.83;;;7.20;;
17052;SDS011;8643;48.824;11.422;2022-12-07T01:16:34;12.37;;;8.03;;
17052;SDS011;8643;48.824;11.422;2022-12-07T01:19:02;13.87;;;7.73;;
17052;SDS011;8643;48.824;11.422;2022-12-07T01:21:32;12.10;;;7.37;;
17052;SDS011;8643;48.824;11.422;2022-12-07T01:24:05;11.77;;;7.57;;
17052;SDS011;8643;48.824;11.422;2022-12-07T01:26:38;11.90;;;7.67;;
17052;SDS011;8643;48.824;11.422;2022-12-07T01:29:07;13.07;;;7.70;;
17052;SDS011;8643;48.824;11.422;2022-12-07T01:31:35;12.67;;;7.43;;
17052;SDS011;8643;48.824;11.422;2022-12-07T01:34:04;14.20;;;8.53;;
17052;SDS011;8643;48.824;11.422;2022-12-07T01:36:33;16.30;;;9.00;;
17052;SDS011;8643;48.824;11.422;2022-12-07T01:39:04;16.50;;;9.37;;
17052;SDS011;8643;48.824;11.422;2022-12-07T01:41:38;21.97;;;11.00;;
17052;SDS011;8643;48.824;11.422;2022-12-07T01:44:14;18.60;;;10.27;;
17052;SDS011;8643;48.824;11.422;2022-12-07T01:46:47;19.03;;;10.70;;
17052;SDS011;8643;48.824;11.422;2022-12-07T01:49:23;17.97;;;9.63;;
17052;SDS011;8643;48.824;11.422;2022-12-07T01:51:58;16.60;;;9.00;;
17052;SDS011;8643;48.824;11.422;2022-12-07T01:54:38;13.77;;;7.87;;
17052;SDS011;8643;48.824;11.422;2022-12-07T01:57:09;13.03;;;7.87;;
17052;SDS011;8643;48.824;11.422;2022-12-07T01:59:41;14.23;;;8.40;;
17052;SDS011;8643;48.824;11.422;2022-12-07T02:02:12;12.97;;;7.37;;
17052;SDS011;8643;48.824;11.422;2022-12-07T02:04:49;15.07;;;8.57;;
17052;SDS011;8643;48.824;11.422;2022-12-07T02:07:20;13.57;;;8.20;;
17052;SDS011;8643;48.824;11.422;2022-12-07T02:09:51;13.90;;;8.13;;
17052;SDS011;8643;48.824;11.422;2022-12-07T02:12:21;14.07;;;7.83;;
17052;SDS011;8643;48.824;11.422;2022-12-07T02:14:51;13.40;;;8.07;;
17052;SDS011;8643;48.824;11.422;2022-12-07T02:17:20;13.90;;;8.30;;
17052;SDS011;8643;48.824;11.422;2022-12-07T02:20:02;13.50;;;8.30;;
17052;SDS011;8643;48.824;11.422;2022-12-07T02:23:00;15.23;;;8.20;;
17052;SDS011;8643;48.824;11.422;2022-12-07T02:26:08;13.17;;;8.10;;
17052;SDS011;8643;48.824;11.422;2022-12-07T02:29:24;13.97;;;8.60;;
17052;SDS011;8643;48.824;11.422;2022-12-07T02:32:02;12.73;;;8.33;;
17052;SDS011;8643;48.824;11.422;2022-12-07T02:34:42;13.70;;;8.23;;
17052;SDS011;8643;48.824;11.422;2022-12-07T02:37:19;15.60;;;8.70;;
17052;SDS011;8643;48.824;11.422;2022-12-07T02:40:00;15.63;;;8.67;;
17052;SDS011;8643;48.824;11.422;2022-12-07T02:42:40;14.63;;;8.77;;
17052;SDS011;8643;48.824;11.422;2022-12-07T02:45:16;14.43;;;8.43;;
17052;SDS011;8643;48.824;11.422;2022-12-07T02:47:51;16.17;;;9.20;;
17052;SDS011;8643;48.824;11.422;2022-12-07T02:50:25;13.83;;;8.07;;
17052;SDS011;8643;48.824;11.422;2022-12-07T02:52:54;13.37;;;7.90;;
17052;SDS011;8643;48.824;11.422;2022-12-07T02:55:24;14.80;;;8.37;;
17052;SDS011;8643;48.824;11.422;2022-12-07T02:58:03;13.87;;;8.00;;
17052;SDS011;8643;48.824;11.422;2022-12-07T03:00:54;16.60;;;9.60;;
17052;SDS011;8643;48.824;11.422;2022-12-07T03:03:32;14.50;;;8.37;;
17052;SDS011;8643;48.824;11.422;2022-12-07T03:06:09;15.73;;;8.93;;
17052;SDS011;8643;48.824;11.422;2022-12-07T03:08:50;15.53;;;8.80;;
17052;SDS011;8643;48.824;11.422;2022-12-07T03:11:25;14.63;;;9.40;;
17052;SDS011;8643;48.824;11.422;2022-12-07T03:14:09;15.67;;;9.37;;
17052;SDS011;8643;48.824;11.422;2022-12-07T03:16:47;15.93;;;9.63;;
17052;SDS011;8643;48.824;11.422;2022-12-07T03:19:23;17.67;;;9.50;;
17052;SDS011;8643;48.824;11.422;2022-12-07T03:21:55;16.63;;;9.07;;
17052;SDS011;8643;48.824;11.422;2022-12-07T03:24:30;17.57;;;9.30;;
17052;SDS011;8643;48.824;11.422;2022-12-07T03:27:04;18.73;;;10.77;;
17052;SDS011;8643;48.824;11.422;2022-12-07T03:29:37;17.03;;;9.77;;
17052;SDS011;8643;48.824;11.422;2022-12-07T03:32:13;18.57;;;10.03;;
17052;SDS011;8643;48.824;11.422;2022-12-07T03:34:52;16.97;;;9.30;;
17052;SDS011;8643;48.824;11.422;2022-12-07T03:37:31;17.10;;;9.50;;
17052;SDS011;8643;48.824;11.422;2022-12-07T03:40:06;18.23;;;10.17;;
17052;SDS011;8643;48.824;11.422;2022-12-07T03:42:43;18.93;;;9.63;;
17052;SDS011;8643;48.824;11.422;2022-12-07T03:45:13;18.43;;;9.63;;
17052;SDS011;8643;48.824;11.422;2022-12-07T03:47:45;19.33;;;10.27;;
17052;SDS011;8643;48.824;11.422;2022-12-07T03:50:28;17.93;;;9.73;;
17052;SDS011;8643;48.824;11.422;2022-12-07T03:53:08;18.63;;;10.90;;
17052;SDS011;8643;48.824;11.422;2022-12-07T03:55:44;18.13;;;9.73;;
17052;SDS011;8643;48.824;11.422;2022-12-07T03:58:16;16.53;;;9.83;;
17052;SDS011;8643;48.824;11.422;2022-12-07T04:00:48;18.77;;;10.03;;
17052;SDS011;8643;48.824;11.422;2022-12-07T04:03:19;17.23;;;9.83;;
17052;SDS011;8643;48.824;11.422;2022-12-07T04:05:48;17.33;;;10.07;;
17052;SDS011;8643;48.824;11.422;2022-12-07T04:08:16;19.93;;;10.70;;
17052;SDS011;8643;48.824;11.422;2022-12-07T04:10:45;17.97;;;10.23;;
17052;SDS011;8643;48.824;11.422;2022-12-07T04:13:14;17.23;;;10.30;;
17052;SDS011;8643;48.824;11.422;2022-12-07T04:15:42;19.50;;;10.90;;
17052;SDS011;8643;48.824;11.422;2022-12-07T04:18:11;20.63;;;11.10;;
17052;SDS011;8643;48.824;11.422;2022-12-07T04:20:41;18.27;;;10.40;;
17052;SDS011;8643;48.824;11.422;2022-12-07T04:23:10;19.10;;;10.43;;
17052;SDS011;8643;48.824;11.422;2022-12-07T04:25:39;19.83;;;10.47;;
17052;SDS011;8643;48.824;11.422;2022-12-07T04:28:08;20.13;;;10.33;;
17052;SDS011;8643;48.824;11.422;2022-12-07T04:30:36;18.50;;;10.10;;
17052;SDS011;8643;48.824;11.422;2022-12-07T04:33:05;19.33;;;10.50;;
17052;SDS011;8643;48.824;11.422;2022-12-07T04:35:35;19.93;;;10.80;;
17052;SDS011;8643;48.824;11.422;2022-12-07T04:38:04;19.47;;;10.20;;
17052;SDS011;8643;48.824;11.422;2022-12-07T04:40:33;18.77;;;10.57;;
17052;SDS011;8643;48.824;11.422;2022-12-07T04:43:02;19.70;;;11.10;;
17052;SDS011;8643;48.824;11.422;2022-12-07T04:45:31;22.77;;;10.87;;
17052;SDS011;8643;48.824;11.422;2022-12-07T04:47:59;21.03;;;11.27;;
17052;SDS011;8643;48.824;11.422;2022-12-07T04:50:28;19.90;;;10.53;;
17052;SDS011;8643;48.824;11.422;2022-12-07T04:52:56;20.77;;;11.23;;
17052;SDS011;8643;48.824;11.422;2022-12-07T04:55:26;21.40;;;11.43;;
17052;SDS011;8643;48.824;11.422;2022-12-07T04:57:54;21.33;;;11.50;;
17052;SDS011;8643;48.824;11.422;2022-12-07T05:00:22;22.80;;;11.33;;
17052;SDS011;8643;48.824;11.422;2022-12-07T05:02:51;24.47;;;12.07;;
17052;SDS011;8643;48.824;11.422;2022-12-07T05:05:19;21.93;;;11.07;;
17052;SDS011;8643;48.824;11.422;2022-12-07T05:07:48;23.47;;;11.90;;
17052;SDS011;8643;48.824;11.422;2022-12-07T05:10:16;22.87;;;11.63;;
17052;SDS011;8643;48.824;11.422;2022-12-07T05:12:46;24.33;;;12.47;;
17052;SDS011;8643;48.824;11.422;2022-12-07T05:15:15;22.63;;;12.00;;
17052;SDS011;8643;48.824;11.422;2022-12-07T05:17:44;21.63;;;11.53;;
17052;SDS011;8643;48.824;11.422;2022-12-07T05:20:12;26.43;;;12.17;;
17052;SDS011;8643;48.824;11.422;2022-12-07T05:22:41;22.10;;;11.03;;
17052;SDS011;8643;48.824;11.422;2022-12-07T05:25:09;24.67;;;11.80;;
17052;SDS011;8643;48.824;11.422;2022-12-07T05:27:38;23.90;;;11.63;;
17052;SDS011;8643;48.824;11.422;2022-12-07T05:30:08;25.63;;;12.53;;
17052;SDS011;8643;48.824;11.422;2022-12-07T05:32:38;26.77;;;12.30;;
17052;SDS011;8643;48.824;11.422;2022-12-07T05:35:06;20.50;;;10.30;;
17052;SDS011;8643;48.824;11.422;2022-12-07T05:37:36;25.40;;;12.87;;
17052;SDS011;8643;48.824;11.422;2022-12-07T05:40:05;28.03;;;13.27;;
17052;SDS011;8643;48.824;11.422;2022-12-07T05:42:34;28.70;;;13.30;;
17052;SDS011;8643;48.824;11.422;2022-12-07T05:45:02;27.50;;;13.17;;
17052;SDS011;8643;48.824;11.422;2022-12-07T05:47:33;25.27;;;12.30;;
17052;SDS011;8643;48.824;11.422;2022-12-07T05:50:02;28.67;;;13.30;;
17052;SDS011;8643;48.824;11.422;2022-12-07T05:52:31;25.83;;;12.50;;
17052;SDS011;8643;48.824;11.422;2022-12-07T05:55:00;22.80;;;11.73;;
17052;SDS011;8643;48.824;11.422;2022-12-07T05:57:29;24.83;;;12.67;;
17052;SDS011;8643;48.824;11.422;2022-12-07T05:59:57;29.30;;;13.80;;
17052;SDS011;8643;48.824;11.422;2022-12-07T06:02:24;27.80;;;14.07;;
17052;SDS011;8643;48.824;11.422;2022-12-07T06:04:54;25.43;;;12.90;;
17052;SDS011;8643;48.824;11.422;2022-12-07T06:07:23;22.63;;;11.53;;
17052;SDS011;8643;48.824;11.422;2022-12-07T06:09:51;21.33;;;10.80;;
17052;SDS011;8643;48.824;11.422;2022-12-07T06:12:20;21.00;;;10.20;;
17052;SDS011;8643;48.824;11.422;2022-12-07T06:15:05;20.97;;;10.17;;
17052;SDS011;8643;48.824;11.422;2022-12-07T06:17:34;21.77;;;10.30;;
17052;SDS011;8643;48.824;11.422;2022-12-07T06:20:04;22.10;;;12.23;;
17052;SDS011;8643;48.824;11.422;2022-12-07T06:22:34;26.13;;;13.53;;
17052;SDS011;8643;48.824;11.422;2022-12-07T06:25:03;22.13;;;12.57;;
17052;SDS011;8643;48.824;11.422;2022-12-07T06:27:34;23.03;;;12.23;;
17052;SDS011;8643;48.824;11.422;2022-12-07T06:30:03;24.90;;;12.63;;
17052;SDS011;8643;48.824;11.422;2022-12-07T06:32:35;25.07;;;12.50;;
17052;SDS011;8643;48.824;11.422;2022-12-07T06:35:06;22.93;;;12.47;;
17052;SDS011;8643;48.824;11.422;2022-12-07T06:37:35;25.57;;;12.83;;
17052;SDS011;8643;48.824;11.422;2022-12-07T06:40:04;27.67;;;13.97;;
17052;SDS011;8643;48.824;11.422;2022-12-07T06:42:34;33.83;;;16.80;;
17052;SDS011;8643;48.824;11.422;2022-12-07T06:45:03;30.73;;;15.57;;
17052;SDS011;8643;48.824;11.422;2022-12-07T06:47:32;31.40;;;16.90;;
17052;SDS011;8643;48.824;11.422;2022-12-07T06:50:11;30.77;;;15.73;;
17052;SDS011;8643;48.824;11.422;2022-12-07T06:52:39;31.87;;;15.43;;
17052;SDS011;8643;48.824;11.422;2022-12-07T06:55:08;29.67;;;14.07;;
17052;SDS011;8643;48.824;11.422;2022-12-07T06:57:36;28.03;;;13.43;;
17052;SDS011;8643;48.824;11.422;2022-12-07T07:00:05;27.87;;;13.43;;
17052;SDS011;8643;48.824;11.422;2022-12-07T07:02:35;30.57;;;14.30;;
17052;SDS011;8643;48.824;11.422;2022-12-07T07:05:04;28.20;;;13.47;;
17052;SDS011;8643;48.824;11.422;2022-12-07T07:07:34;31.27;;;14.00;;
17052;SDS011;8643;48.824;11.422;2022-12-07T07:10:22;31.40;;;14.87;;
17052;SDS011;8643;48.824;11.422;2022-12-07T07:12:51;37.17;;;15.63;;
17052;SDS011;8643;48.824;11.422;2022-12-07T07:15:23;29.07;;;14.63;;
17052;SDS011;8643;48.824;11.422;2022-12-07T07:17:51;37.43;;;17.93;;
17052;SDS011;8643;48.824;11.422;2022-12-07T07:20:20;36.63;;;17.43;;
17052;SDS011;8643;48.824;11.422;2022-12-07T07:22:50;34.63;;;17.43;;
17052;SDS011;8643;48.824;11.422;2022-12-07T07:25:21;31.77;;;16.20;;
17052;SDS011;8643;48.824;11.422;2022-12-07T07:27:50;34.83;;;16.17;;
17052;SDS011;8643;48.824;11.422;2022-12-07T07:30:19;33.57;;;15.90;;
17052;SDS011;8643;48.824;11.422;2022-12-07T07:32:48;47.90;;;21.00;;
17052;SDS011;8643;48.824;11.422;2022-12-07T07:35:17;49.10;;;22.37;;
17052;SDS011;8643;48.824;11.422;2022-12-07T07:37:45;46.30;;;21.63;;
17052;SDS011;8643;48.824;11.422;2022-12-07T07:40:15;61.80;;;24.73;;
17052;SDS011;8643;48.824;11.422;2022-12-07T07:42:46;61.20;;;27.13;;
17052;SDS011;8643;48.824;11.422;2022-12-07T07:45:15;55.33;;;25.63;;
17052;SDS011;8643;48.824;11.422;2022-12-07T07:47:44;56.70;;;25.33;;
17052;SDS011;8643;48.824;11.422;2022-12-07T07:50:13;45.93;;;20.80;;
17052;SDS011;8643;48.824;11.422;2022-12-07T07:52:42;48.37;;;22.10;;
17052;SDS011;8643;48.824;11.422;2022-12-07T07:55:11;46.47;;;20.23;;
17052;SDS011;8643;48.824;11.422;2022-12-07T07:57:41;40.77;;;18.30;;
17052;SDS011;8643;48.824;11.422;2022-12-07T08:00:16;49.97;;;21.63;;
17052;SDS011;8643;48.824;11.422;2022-12-07T08:02:46;44.27;;;19.43;;
17052;SDS011;8643;48.824;11.422;2022-12-07T08:05:14;51.27;;;23.23;;
17052;SDS011;8643;48.824;11.422;2022-12-07T08:07:43;39.33;;;18.73;;
17052;SDS011;8643;48.824;11.422;2022-12-07T08:10:12;37.07;;;18.30;;
17052;SDS011;8643;48.824;11.422;2022-12-07T08:12:43;33.93;;;16.20;;
17052;SDS011;8643;48.824;11.422;2022-12-07T08:15:29;36.57;;;17.27;;
17052;SDS011;8643;48.824;11.422;2022-12-07T08:17:59;37.97;;;17.43;;
17052;SDS011;8643;48.824;11.422;2022-12-07T08:20:29;33.13;;;16.73;;
17052;SDS011;8643;48.824;11.422;2022-12-07T08:22:59;30.10;;;13.73;;
17052;SDS011;8643;48.824;11.422;2022-12-07T08:25:28;28.93;;;14.00;;
17052;SDS011;8643;48.824;11.422;2022-12-07T08:27:58;26.07;;;13.13;;
17052;SDS011;8643;48.824;11.422;2022-12-07T08:30:28;29.07;;;13.60;;
17052;SDS011;8643;48.824;11.422;2022-12-07T08:32:57;35.50;;;17.87;;
17052;SDS011;8643;48.824;11.422;2022-12-07T08:35:25;32.50;;;14.73;;
17052;SDS011;8643;48.824;11.422;2022-12-07T08:37:54;30.27;;;14.60;;
17052;SDS011;8643;48.824;11.422;2022-12-07T08:40:24;32.40;;;15.53;;
17052;SDS011;8643;48.824;11.422;2022-12-07T08:42:52;27.87;;;15.03;;
17052;SDS011;8643;48.824;11.422;2022-12-07T08:45:22;25.10;;;13.50;;
17052;SDS011;8643;48.824;11.422;2022-12-07T08:47:53;26.83;;;14.33;;
17052;SDS011;8643;48.824;11.422;2022-12-07T08:50:28;28.53;;;14.13;;
17052;SDS011;8643;48.824;11.422;2022-12-07T08:52:59;26.43;;;14.80;;
17052;SDS011;8643;48.824;11.422;2022-12-07T08:55:28;26.00;;;13.07;;
17052;SDS011;8643;48.824;11.422;2022-12-07T08:57:57;23.67;;;12.23;;
17052;SDS011;8643;48.824;11.422;2022-12-07T09:00:28;26.17;;;13.50;;
17052;SDS011;8643;48.824;11.422;2022-12-07T09:02:57;28.47;;;14.90;;
17052;SDS011;8643;48.824;11.422;2022-12-07T09:05:25;28.27;;;14.03;;
17052;SDS011;8643;48.824;11.422;2022-12-07T09:07:54;27.17;;;14.03;;
17052;SDS011;8643;48.824;11.422;2022-12-07T09:10:26;27.23;;;13.83;;
17052;SDS011;8643;48.824;11.422;2022-12-07T09:12:55;26.17;;;12.20;;
17052;SDS011;8643;48.824;11.422;2022-12-07T09:15:26;25.20;;;13.33;;
17052;SDS011;8643;48.824;11.422;2022-12-07T09:17:57;32.83;;;15.40;;
17052;SDS011;8643;48.824;11.422;2022-12-07T09:20:26;27.77;;;14.03;;
17052;SDS011;8643;48.824;11.422;2022-12-07T09:22:54;29.93;;;15.63;;
17052;SDS011;8643;48.824;11.422;2022-12-07T09:25:23;28.70;;;13.90;;
17052;SDS011;8643;48.824;11.422;2022-12-07T09:27:55;27.90;;;14.83;;
17052;SDS011;8643;48.824;11.422;2022-12-07T09:30:24;26.17;;;13.57;;
17052;SDS011;8643;48.824;11.422;2022-12-07T09:32:54;24.43;;;13.33;;
17052;SDS011;8643;48.824;11.422;2022-12-07T09:35:24;27.93;;;14.97;;
17052;SDS011;8643;48.824;11.422;2022-12-07T09:37:53;27.13;;;13.87;;
17052;SDS011;8643;48.824;11.422;2022-12-07T09:40:22;26.37;;;13.67;;
17052;SDS011;8643;48.824;11.422;2022-12-07T09:42:52;28.40;;;13.70;;
17052;SDS011;8643;48.824;11.422;2022-12-07T09:45:22;24.13;;;12.33;;
17052;SDS011;8643;48.824;11.422;2022-12-07T09:47:59;26.83;;;14.07;;
17052;SDS011;8643;48.824;11.422;2022-12-07T09:50:30;23.40;;;11.87;;
17052;SDS011;8643;48.824;11.422;2022-12-07T09:53:03;23.13;;;12.10;;
17052;SDS011;8643;48.824;11.422;2022-12-07T09:55:41;29.03;;;13.10;;
17052;SDS011;8643;48.824;11.422;2022-12-07T09:58:12;24.93;;;13.07;;
17052;SDS011;8643;48.824;11.422;2022-12-07T10:00:48;25.33;;;12.60;;
17052;SDS011;8643;48.824;11.422;2022-12-07T10:03:22;24.10;;;12.63;;
17052;SDS011;8643;48.824;11.422;2022-12-07T10:05:50;27.23;;;12.57;;
17052;SDS011;8643;48.824;11.422;2022-12-07T10:08:20;27.47;;;13.40;;
17052;SDS011;8643;48.824;11.422;2022-12-07T10:10:49;24.70;;;12.33;;
17052;SDS011;8643;48.824;11.422;2022-12-07T10:13:22;22.33;;;11.93;;
17052;SDS011;8643;48.824;11.422;2022-12-07T10:16:02;23.07;;;11.80;;
17052;SDS011;8643;48.824;11.422;2022-12-07T10:18:34;22.63;;;11.17;;
17052;SDS011;8643;48.824;11.422;2022-12-07T10:21:09;23.47;;;12.33;;
17052;SDS011;8643;48.824;11.422;2022-12-07T10:23:40;23.33;;;12.27;;
17052;SDS011;8643;48.824;11.422;2022-12-07T10:26:26;23.10;;;12.30;;
17052;SDS011;8643;48.824;11.422;2022-12-07T10:28:59;23.50;;;12.00;;
17052;SDS011;8643;48.824;11.422;2022-12-07T10:31:41;22.77;;;12.77;;
17052;SDS011;8643;48.824;11.422;2022-12-07T10:34:20;20.30;;;11.33;;
17052;SDS011;8643;48.824;11.422;2022-12-07T10:36:51;22.77;;;11.97;;
17052;SDS011;8643;48.824;11.422;2022-12-07T10:39:21;22.27;;;11.30;;
17052;SDS011;8643;48.824;11.422;2022-12-07T10:41:54;22.70;;;11.27;;
17052;SDS011;8643;48.824;11.422;2022-12-07T10:44:26;23.40;;;11.50;;
17052;SDS011;8643;48.824;11.422;2022-12-07T10:46:59;23.40;;;12.33;;
17052;SDS011;8643;48.824;11.422;2022-12-07T10:52:58;23.83;;;12.27;;
17052;SDS011;8643;48.824;11.422;2022-12-07T10:55:58;23.33;;;11.73;;
17052;SDS011;8643;48.824;11.422;2022-12-07T10:58:49;21.20;;;11.43;;
17052;SDS011;8643;48.824;11.422;2022-12-07T11:01:39;23.90;;;11.87;;
17052;SDS011;8643;48.824;11.422;2022-12-07T11:04:18;22.63;;;11.00;;
17052;SDS011;8643;48.824;11.422;2022-12-07T11:07:06;21.43;;;11.10;;
17052;SDS011;8643;48.824;11.422;2022-12-07T11:09:47;20.03;;;10.80;;
17052;SDS011;8643;48.824;11.422;2022-12-07T11:12:39;21.27;;;11.70;;
17052;SDS011;8643;48.824;11.422;2022-12-07T11:15:43;18.23;;;9.00;;
17052;SDS011;8643;48.824;11.422;2022-12-07T11:18:27;17.43;;;9.13;;
17052;SDS011;8643;48.824;11.422;2022-12-07T11:21:04;16.57;;;9.00;;
17052;SDS011;8643;48.824;11.422;2022-12-07T11:23:48;22.60;;;11.60;;
17052;SDS011;8643;48.824;11.422;2022-12-07T11:26:28;18.03;;;9.77;;
17052;SDS011;8643;48.824;11.422;2022-12-07T11:29:24;17.70;;;9.63;;
17052;SDS011;8643;48.824;11.422;2022-12-07T11:32:42;21.70;;;10.63;;
17052;SDS011;8643;48.824;11.422;2022-12-07T11:35:22;19.53;;;10.57;;
17052;SDS011;8643;48.824;11.422;2022-12-07T11:38:09;18.47;;;9.47;;
17052;SDS011;8643;48.824;11.422;2022-12-07T11:40:48;17.13;;;9.63;;
17052;SDS011;8643;48.824;11.422;2022-12-07T11:43:21;21.37;;;10.23;;
17052;SDS011;8643;48.824;11.422;2022-12-07T11:45:56;18.10;;;9.70;;
17052;SDS011;8643;48.824;11.422;2022-12-07T11:48:32;16.77;;;8.17;;
17052;SDS011;8643;48.824;11.422;2022-12-07T11:51:06;16.67;;;8.30;;
17052;SDS011;8643;48.824;11.422;2022-12-07T11:53:39;14.00;;;7.73;;
17052;SDS011;8643;48.824;11.422;2022-12-07T11:56:16;16.13;;;8.53;;
17052;SDS011;8643;48.824;11.422;2022-12-07T11:58:49;19.53;;;9.60;;
17052;SDS011;8643;48.824;11.422;2022-12-07T12:01:26;19.27;;;9.37;;
17052;SDS011;8643;48.824;11.422;2022-12-07T12:04:10;13.53;;;7.43;;
17052;SDS011;8643;48.824;11.422;2022-12-07T12:06:52;18.00;;;9.53;;
17052;SDS011;8643;48.824;11.422;2022-12-07T12:09:23;24.43;;;11.90;;
17052;SDS011;8643;48.824;11.422;2022-12-07T12:12:12;29.40;;;14.43;;
17052;SDS011;8643;48.824;11.422;2022-12-07T12:15:32;15.97;;;8.97;;
17052;SDS011;8643;48.824;11.422;2022-12-07T12:18:30;17.87;;;9.47;;
17052;SDS011;8643;48.824;11.422;2022-12-07T12:21:30;27.87;;;11.07;;
17052;SDS011;8643;48.824;11.422;2022-12-07T12:24:00;16.33;;;8.67;;
17052;SDS011;8643;48.824;11.422;2022-12-07T12:26:36;20.27;;;10.07;;
17052;SDS011;8643;48.824;11.422;2022-12-07T12:29:18;16.97;;;9.67;;
17052;SDS011;8643;48.824;11.422;2022-12-07T12:32:04;15.83;;;8.33;;
17052;SDS011;8643;48.824;11.422;2022-12-07T12:34:41;12.13;;;7.13;;
17052;SDS011;8643;48.824;11.422;2022-12-07T12:37:42;14.67;;;6.93;;
17052;SDS011;8643;48.824;11.422;2022-12-07T12:40:24;13.67;;;7.70;;
17052;SDS011;8643;48.824;11.422;2022-12-07T12:46:38;12.93;;;7.33;;
17052;SDS011;8643;48.824;11.422;2022-12-07T12:55:58;13.70;;;7.60;;
17052;SDS011;8643;48.824;11.422;2022-12-07T13:01:56;14.40;;;8.93;;
17052;SDS011;8643;48.824;11.422;2022-12-07T13:04:51;12.80;;;7.53;;
17052;SDS011;8643;48.824;11.422;2022-12-07T13:07:47;14.70;;;7.57;;
17052;SDS011;8643;48.824;11.422;2022-12-07T13:10:37;13.13;;;6.87;;
17052;SDS011;8643;48.824;11.422;2022-12-07T13:22:47;11.57;;;6.13;;
17052;SDS011;8643;48.824;11.422;2022-12-07T13:25:20;11.00;;;5.70;;
17052;SDS011;8643;48.824;11.422;2022-12-07T13:28:10;10.27;;;5.47;;
17052;SDS011;8643;48.824;11.422;2022-12-07T13:30:46;10.73;;;5.17;;
17052;SDS011;8643;48.824;11.422;2022-12-07T13:33:27;11.27;;;6.10;;
17052;SDS011;8643;48.824;11.422;2022-12-07T13:35:58;9.97;;;6.03;;
17052;SDS011;8643;48.824;11.422;2022-12-07T13:38:28;11.50;;;6.20;;
17052;SDS011;8643;48.824;11.422;2022-12-07T13:41:01;13.57;;;6.37;;
17052;SDS011;8643;48.824;11.422;2022-12-07T13:43:45;10.90;;;5.90;;
17052;SDS011;8643;48.824;11.422;2022-12-07T13:46:17;10.10;;;5.57;;
17052;SDS011;8643;48.824;11.422;2022-12-07T13:48:53;10.87;;;5.73;;
17052;SDS011;8643;48.824;11.422;2022-12-07T13:51:25;11.73;;;6.03;;
17052;SDS011;8643;48.824;11.422;2022-12-07T13:53:55;11.03;;;5.37;;
17052;SDS011;8643;48.824;11.422;2022-12-07T13:56:31;13.37;;;7.00;;
17052;SDS011;8643;48.824;11.422;2022-12-07T13:59:02;14.80;;;7.30;;
17052;SDS011;8643;48.824;11.422;2022-12-07T14:01:38;11.43;;;6.10;;
17052;SDS011;8643;48.824;11.422;2022-12-07T14:04:17;12.00;;;6.10;;
17052;SDS011;8643;48.824;11.422;2022-12-07T14:09:56;20.60;;;9.50;;
17052;SDS011;8643;48.824;11.422;2022-12-07T14:12:27;18.10;;;8.37;;
17052;SDS011;8643;48.824;11.422;2022-12-07T14:14:57;13.00;;;7.50;;
17052;SDS011;8643;48.824;11.422;2022-12-07T14:17:28;14.80;;;7.90;;
17052;SDS011;8643;48.824;11.422;2022-12-07T14:19:57;17.33;;;8.67;;
17052;SDS011;8643;48.824;11.422;2022-12-07T14:22:28;23.03;;;11.07;;
17052;SDS011;8643;48.824;11.422;2022-12-07T14:25:13;15.03;;;7.50;;
17052;SDS011;8643;48.824;11.422;2022-12-07T14:27:52;22.00;;;11.10;;
17052;SDS011;8643;48.824;11.422;2022-12-07T14:30:24;13.60;;;7.00;;
17052;SDS011;8643;48.824;11.422;2022-12-07T14:32:57;19.97;;;11.43;;
17052;SDS011;8643;48.824;11.422;2022-12-07T14:35:29;17.00;;;8.47;;
17052;SDS011;8643;48.824;11.422;2022-12-07T14:37:59;17.03;;;9.40;;
17052;SDS011;8643;48.824;11.422;2022-12-07T14:40:29;15.23;;;8.03;;
17052;SDS011;8643;48.824;11.422;2022-12-07T14:43:00;12.67;;;7.17;;
17052;SDS011;8643;48.824;11.422;2022-12-07T14:45:33;14.27;;;7.57;;
17052;SDS011;8643;48.824;11.422;2022-12-07T14:48:01;14.90;;;7.20;;
17052;SDS011;8643;48.824;11.422;2022-12-07T14:50:52;11.07;;;6.70;;
17052;SDS011;8643;48.824;11.422;2022-12-07T14:53:42;16.27;;;7.13;;
17052;SDS011;8643;48.824;11.422;2022-12-07T14:56:24;12.30;;;6.27;;
17052;SDS011;8643;48.824;11.422;2022-12-07T14:58:54;14.07;;;7.23;;
17052;SDS011;8643;48.824;11.422;2022-12-07T15:01:22;10.73;;;6.30;;
17052;SDS011;8643;48.824;11.422;2022-12-07T15:03:51;15.13;;;7.83;;
17052;SDS011;8643;48.824;11.422;2022-12-07T15:06:19;15.50;;;8.63;;
17052;SDS011;8643;48.824;11.422;2022-12-07T15:08:48;11.63;;;6.73;;
17052;SDS011;8643;48.824;11.422;2022-12-07T15:11:17;16.47;;;9.80;;
17052;SDS011;8643;48.824;11.422;2022-12-07T15:13:47;14.97;;;8.13;;
17052;SDS011;8643;48.824;11.422;2022-12-07T15:16:33;13.70;;;7.70;;
17052;SDS011;8643;48.824;11.422;2022-12-07T15:19:23;14.30;;;8.50;;
17052;SDS011;8643;48.824;11.422;2022-12-07T15:21:55;15.83;;;8.23;;
17052;SDS011;8643;48.824;11.422;2022-12-07T15:24:26;21.13;;;10.63;;
17052;SDS011;8643;48.824;11.422;2022-12-07T15:26:55;19.60;;;10.07;;
17052;SDS011;8643;48.824;11.422;2022-12-07T15:29:25;21.40;;;12.73;;
17052;SDS011;8643;48.824;11.422;2022-12-07T15:31:53;18.13;;;10.43;;
17052;SDS011;8643;48.824;11.422;2022-12-07T15:34:24;18.33;;;9.20;;
17052;SDS011;8643;48.824;11.422;2022-12-07T15:37:03;18.77;;;11.00;;